sensor_id;sensor_type;location;lat;lon;timestamp;pressure;altitude;pressure_sealevel;temperature;humidity
6449;BME280;3257;52.298;13.690;2022-07-23T00:00:12;76612.50;;;-144.77;82.28
6449;BME280;3257;52.298;13.690;2022-07-23T00:02:39;76608.50;;;-144.77;82.24
6449;BME280;3257;52.298;13.690;2022-07-23T00:05:05;76588.63;;;-144.77;81.64
6449;BME280;3257;52.298;13.690;2022-07-23T00:07:33;76588.63;;;-144.77;81.90
6449;BME280;3257;52.298;13.690;2022-07-23T00:10:00;76586.66;;;-144.77;81.50
6449;BME280;3257;52.298;13.690;2022-07-23T00:12:26;76606.53;;;-144.77;81.69
6449;BME280;3257;52.298;13.690;2022-07-23T00:14:53;76598.56;;;-144.77;81.44
6449;BME280;3257;52.298;13.690;2022-07-23T00:17:20;76616.47;;;-144.77;81.64
6449;BME280;3257;52.298;13.690;2022-07-23T00:19:46;76616.47;;;-144.77;81.71
6449;BME280;3257;52.298;13.690;2022-07-23T00:22:13;76616.47;;;-144.77;81.74
6449;BME280;3257;52.298;13.690;2022-07-23T00:24:40;76622.44;;;-144.77;82.00
6449;BME280;3257;52.298;13.690;2022-07-23T00:27:06;76622.44;;;-144.77;81.87
6449;BME280;3257;52.298;13.690;2022-07-23T00:29:33;76610.50;;;-144.77;81.63
6449;BME280;3257;52.298;13.690;2022-07-23T00:31:59;76624.41;;;-144.77;81.92
6449;BME280;3257;52.298;13.690;2022-07-23T00:34:26;76634.34;;;-144.77;82.15
6449;BME280;3257;52.298;13.690;2022-07-23T00:36:52;76640.31;;;-144.77;82.74
6449;BME280;3257;52.298;13.690;2022-07-23T00:39:20;76638.31;;;-144.77;82.32
6449;BME280;3257;52.298;13.690;2022-07-23T00:41:50;76646.28;;;-144.77;82.71
6449;BME280;3257;52.298;13.690;2022-07-23T00:44:25;76642.28;;;-144.77;82.48
6449;BME280;3257;52.298;13.690;2022-07-23T00:46:55;76636.34;;;-144.77;82.50
6449;BME280;3257;52.298;13.690;2022-07-23T00:49:23;76628.38;;;-144.77;82.62
6449;BME280;3257;52.298;13.690;2022-07-23T00:51:51;76630.38;;;-144.77;83.02
6449;BME280;3257;52.298;13.690;2022-07-23T00:54:18;76636.34;;;-144.77;83.32
6449;BME280;3257;52.298;13.690;2022-07-23T00:56:46;76634.34;;;-144.77;84.04
6449;BME280;3257;52.298;13.690;2022-07-23T00:59:13;76652.22;;;-144.77;85.06
6449;BME280;3257;52.298;13.690;2022-07-23T01:01:41;76638.31;;;-144.77;84.88
6449;BME280;3257;52.298;13.690;2022-07-23T01:04:07;76634.34;;;-144.77;84.89
6449;BME280;3257;52.298;13.690;2022-07-23T01:06:36;76628.38;;;-144.77;85.25
6449;BME280;3257;52.298;13.690;2022-07-23T01:09:05;76630.38;;;-144.77;85.52
6449;BME280;3257;52.298;13.690;2022-07-23T01:11:33;76626.41;;;-144.77;85.60
6449;BME280;3257;52.298;13.690;2022-07-23T01:14:10;76628.38;;;-144.77;85.65
6449;BME280;3257;52.298;13.690;2022-07-23T01:16:38;76630.38;;;-144.77;86.13
6449;BME280;3257;52.298;13.690;2022-07-23T01:19:05;76616.47;;;-144.77;85.66
6449;BME280;3257;52.298;13.690;2022-07-23T01:21:43;76614.47;;;-144.77;85.39
6449;BME280;3257;52.298;13.690;2022-07-23T01:24:11;76628.38;;;-144.77;85.12
6449;BME280;3257;52.298;13.690;2022-07-23T01:26:39;76624.41;;;-144.77;85.35
6449;BME280;3257;52.298;13.690;2022-07-23T01:29:06;76618.44;;;-144.77;85.14
6449;BME280;3257;52.298;13.690;2022-07-23T01:31:33;76626.41;;;-144.77;85.49
6449;BME280;3257;52.298;13.690;2022-07-23T01:33:59;76612.50;;;-144.77;85.32
6449;BME280;3257;52.298;13.690;2022-07-23T01:36:26;76618.44;;;-144.77;85.12
6449;BME280;3257;52.298;13.690;2022-07-23T01:38:53;76614.47;;;-144.77;85.08
6449;BME280;3257;52.298;13.690;2022-07-23T01:41:20;76596.59;;;-144.77;84.42
6449;BME280;3257;52.298;13.690;2022-07-23T01:43:46;76578.72;;;-144.77;83.72
6449;BME280;3257;52.298;13.690;2022-07-23T01:46:13;76594.59;;;-144.77;83.72
6449;BME280;3257;52.298;13.690;2022-07-23T01:48:40;76614.47;;;-144.77;83.92
6449;BME280;3257;52.298;13.690;2022-07-23T01:51:07;76626.41;;;-144.77;84.29
6449;BME280;3257;52.298;13.690;2022-07-23T01:53:33;76638.31;;;-144.77;84.73
6449;BME280;3257;52.298;13.690;2022-07-23T01:56:00;76634.34;;;-144.77;85.40
6449;BME280;3257;52.298;13.690;2022-07-23T01:58:27;76614.47;;;-144.77;85.19
6449;BME280;3257;52.298;13.690;2022-07-23T02:00:54;76604.53;;;-144.77;84.79
6449;BME280;3257;52.298;13.690;2022-07-23T02:03:22;76612.50;;;-144.77;84.87
6449;BME280;3257;52.298;13.690;2022-07-23T02:05:48;76626.41;;;-144.77;84.93
6449;BME280;3257;52.298;13.690;2022-07-23T02:08:15;76628.38;;;-144.77;85.45
6449;BME280;3257;52.298;13.690;2022-07-23T02:10:42;76638.31;;;-144.77;85.47
6449;BME280;3257;52.298;13.690;2022-07-23T02:13:08;76640.31;;;-144.77;85.89
6449;BME280;3257;52.298;13.690;2022-07-23T02:15:35;76632.34;;;-144.77;85.86
6449;BME280;3257;52.298;13.690;2022-07-23T02:18:02;76640.31;;;-144.77;86.00
6449;BME280;3257;52.298;13.690;2022-07-23T02:20:29;76638.31;;;-144.77;86.23
6449;BME280;3257;52.298;13.690;2022-07-23T02:22:55;76636.34;;;-144.77;85.82
6449;BME280;3257;52.298;13.690;2022-07-23T02:25:22;76618.44;;;-144.77;85.95
6449;BME280;3257;52.298;13.690;2022-07-23T02:27:48;76586.66;;;-144.77;84.58
6449;BME280;3257;52.298;13.690;2022-07-23T02:30:15;76592.63;;;-144.77;84.64
6449;BME280;3257;52.298;13.690;2022-07-23T02:32:48;76592.63;;;-144.77;84.70
6449;BME280;3257;52.298;13.690;2022-07-23T02:35:14;76574.72;;;-144.77;84.49
6449;BME280;3257;52.298;13.690;2022-07-23T02:37:41;76558.84;;;-144.77;83.86
6449;BME280;3257;52.298;13.690;2022-07-23T02:40:08;76570.75;;;-144.77;84.02
6449;BME280;3257;52.298;13.690;2022-07-23T02:42:34;76552.88;;;-144.77;83.07
6449;BME280;3257;52.298;13.690;2022-07-23T02:45:01;76546.91;;;-144.77;83.35
6449;BME280;3257;52.298;13.690;2022-07-23T02:47:28;76552.88;;;-144.77;83.21
6449;BME280;3257;52.298;13.690;2022-07-23T02:49:54;76570.75;;;-144.77;83.22
6449;BME280;3257;52.298;13.690;2022-07-23T02:52:21;76566.78;;;-144.77;83.54
6449;BME280;3257;52.298;13.690;2022-07-23T02:54:48;76596.59;;;-144.77;84.20
6449;BME280;3257;52.298;13.690;2022-07-23T02:57:14;76600.56;;;-144.77;84.52
6449;BME280;3257;52.298;13.690;2022-07-23T02:59:41;76598.56;;;-144.77;84.24
6449;BME280;3257;52.298;13.690;2022-07-23T03:02:07;76598.56;;;-144.77;84.24
6449;BME280;3257;52.298;13.690;2022-07-23T03:04:34;76590.63;;;-144.77;84.22
6449;BME280;3257;52.298;13.690;2022-07-23T03:07:01;76594.59;;;-144.77;83.93
6449;BME280;3257;52.298;13.690;2022-07-23T03:09:27;76600.56;;;-144.77;83.94
6449;BME280;3257;52.298;13.690;2022-07-23T03:11:54;76598.56;;;-144.77;84.24
6449;BME280;3257;52.298;13.690;2022-07-23T03:14:20;76604.53;;;-144.77;83.98
6449;BME280;3257;52.298;13.690;2022-07-23T03:16:47;76590.63;;;-144.77;83.92
6449;BME280;3257;52.298;13.690;2022-07-23T03:19:15;76582.69;;;-144.77;83.84
6449;BME280;3257;52.298;13.690;2022-07-23T03:21:42;76570.75;;;-144.77;83.46
6449;BME280;3257;52.298;13.690;2022-07-23T03:24:09;76586.66;;;-144.77;83.39
6449;BME280;3257;52.298;13.690;2022-07-23T03:26:36;76580.69;;;-144.77;82.95
6449;BME280;3257;52.298;13.690;2022-07-23T03:29:03;76570.75;;;-144.77;83.34
6449;BME280;3257;52.298;13.690;2022-07-23T03:31:31;76546.91;;;-144.77;83.09
6449;BME280;3257;52.298;13.690;2022-07-23T03:33:58;76536.97;;;-144.77;82.51
6449;BME280;3257;52.298;13.690;2022-07-23T03:36:25;76536.97;;;-144.77;82.52
6449;BME280;3257;52.298;13.690;2022-07-23T03:38:52;76538.97;;;-144.77;82.67
6449;BME280;3257;52.298;13.690;2022-07-23T03:41:20;76538.97;;;-144.77;83.03
6449;BME280;3257;52.298;13.690;2022-07-23T03:43:46;76540.94;;;-144.77;82.77
6449;BME280;3257;52.298;13.690;2022-07-23T03:46:14;76531.00;;;-144.77;82.51
6449;BME280;3257;52.298;13.690;2022-07-23T03:48:40;76523.06;;;-144.77;81.87
6449;BME280;3257;52.298;13.690;2022-07-23T03:51:07;76511.16;;;-144.77;80.97
6449;BME280;3257;52.298;13.690;2022-07-23T03:53:34;76507.16;;;-144.77;80.83
6449;BME280;3257;52.298;13.690;2022-07-23T03:56:00;76519.09;;;-144.77;80.71
6449;BME280;3257;52.298;13.690;2022-07-23T03:58:27;76544.94;;;-144.77;80.82
6449;BME280;3257;52.298;13.690;2022-07-23T04:00:53;76533.00;;;-144.77;80.79
6449;BME280;3257;52.298;13.690;2022-07-23T04:03:20;76509.16;;;-144.77;79.64
6449;BME280;3257;52.298;13.690;2022-07-23T04:05:46;76527.03;;;-144.77;79.88
6449;BME280;3257;52.298;13.690;2022-07-23T04:08:13;76527.03;;;-144.77;80.64
6449;BME280;3257;52.298;13.690;2022-07-23T04:10:40;76527.03;;;-144.77;80.07
6449;BME280;3257;52.298;13.690;2022-07-23T04:13:06;76517.09;;;-144.77;79.90
6449;BME280;3257;52.298;13.690;2022-07-23T04:15:33;76503.19;;;-144.77;80.14
6449;BME280;3257;52.298;13.690;2022-07-23T04:17:59;76499.22;;;-144.77;79.44
6449;BME280;3257;52.298;13.690;2022-07-23T04:20:26;76499.22;;;-144.77;79.92
6449;BME280;3257;52.298;13.690;2022-07-23T04:22:52;76467.44;;;-144.77;79.35
6449;BME280;3257;52.298;13.690;2022-07-23T04:25:19;76461.47;;;-144.77;78.77
6449;BME280;3257;52.298;13.690;2022-07-23T04:27:46;76459.47;;;-144.77;78.36
6449;BME280;3257;52.298;13.690;2022-07-23T04:30:12;76457.50;;;-144.77;78.84
6449;BME280;3257;52.298;13.690;2022-07-23T04:32:39;76461.47;;;-144.77;79.00
6449;BME280;3257;52.298;13.690;2022-07-23T04:35:05;76441.59;;;-144.77;78.37
6449;BME280;3257;52.298;13.690;2022-07-23T04:37:32;76431.66;;;-144.77;78.04
6449;BME280;3257;52.298;13.690;2022-07-23T04:39:59;76439.59;;;-144.77;78.13
6449;BME280;3257;52.298;13.690;2022-07-23T04:42:25;76469.41;;;-144.77;78.04
6449;BME280;3257;52.298;13.690;2022-07-23T04:44:52;76479.34;;;-144.77;78.59
6449;BME280;3257;52.298;13.690;2022-07-23T04:47:19;76479.34;;;-144.77;78.58
6449;BME280;3257;52.298;13.690;2022-07-23T04:49:48;76493.25;;;-144.77;77.89
6449;BME280;3257;52.298;13.690;2022-07-23T04:52:14;76495.25;;;-144.77;77.31
6449;BME280;3257;52.298;13.690;2022-07-23T04:54:41;76487.28;;;-144.77;76.98
6449;BME280;3257;52.298;13.690;2022-07-23T04:57:08;76479.34;;;-144.77;76.40
6449;BME280;3257;52.298;13.690;2022-07-23T04:59:34;76469.41;;;-144.77;77.51
6449;BME280;3257;52.298;13.690;2022-07-23T05:02:01;76491.28;;;-144.77;77.19
6449;BME280;3257;52.298;13.690;2022-07-23T05:04:28;76491.28;;;-144.77;77.25
6449;BME280;3257;52.298;13.690;2022-07-23T05:06:55;76455.50;;;-144.77;77.19
6449;BME280;3257;52.298;13.690;2022-07-23T05:09:21;76433.66;;;-144.77;77.02
6449;BME280;3257;52.298;13.690;2022-07-23T05:20:11;76463.44;;;-144.77;76.99
6449;BME280;3257;52.298;13.690;2022-07-23T05:22:54;76465.44;;;-144.77;77.69
6449;BME280;3257;52.298;13.690;2022-07-23T05:25:21;76459.47;;;-144.77;77.78
6449;BME280;3257;52.298;13.690;2022-07-23T05:27:58;76485.31;;;-144.77;77.85
6449;BME280;3257;52.298;13.690;2022-07-23T05:31:19;76483.31;;;-144.77;77.89
6449;BME280;3257;52.298;13.690;2022-07-23T05:33:46;76503.19;;;-144.77;78.06
6449;BME280;3257;52.298;13.690;2022-07-23T05:36:13;76483.31;;;-144.77;77.92
6449;BME280;3257;52.298;13.690;2022-07-23T05:38:40;76475.38;;;-144.77;77.79
6449;BME280;3257;52.298;13.690;2022-07-23T05:41:07;76499.22;;;-144.77;78.09
6449;BME280;3257;52.298;13.690;2022-07-23T05:45:12;76535.00;;;-144.77;78.44
6449;BME280;3257;52.298;13.690;2022-07-23T05:48:41;76552.88;;;-144.77;78.95
6449;BME280;3257;52.298;13.690;2022-07-23T05:51:08;76550.88;;;-144.77;80.44
6449;BME280;3257;52.298;13.690;2022-07-23T05:53:35;76556.84;;;-144.77;82.24
6449;BME280;3257;52.298;13.690;2022-07-23T05:56:02;76556.84;;;-144.77;83.09
6449;BME280;3257;52.298;13.690;2022-07-23T05:58:28;76572.75;;;-144.77;84.35
6449;BME280;3257;52.298;13.690;2022-07-23T06:00:55;76574.72;;;-144.77;84.29
6449;BME280;3257;52.298;13.690;2022-07-23T06:03:22;76578.72;;;-144.77;84.60
6449;BME280;3257;52.298;13.690;2022-07-23T06:05:48;76584.66;;;-144.77;84.93
6449;BME280;3257;52.298;13.690;2022-07-23T06:08:15;76588.63;;;-144.77;85.27
6449;BME280;3257;52.298;13.690;2022-07-23T06:10:41;76614.47;;;-144.77;86.39
6449;BME280;3257;52.298;13.690;2022-07-23T06:13:08;76634.34;;;-144.77;86.89
6449;BME280;3257;52.298;13.690;2022-07-23T06:15:34;76646.28;;;-144.77;86.29
6449;BME280;3257;52.298;13.690;2022-07-23T06:18:01;76626.41;;;-144.77;86.36
6449;BME280;3257;52.298;13.690;2022-07-23T06:20:28;76620.44;;;-144.77;86.79
6449;BME280;3257;52.298;13.690;2022-07-23T06:22:54;76604.53;;;-144.77;85.59
6449;BME280;3257;52.298;13.690;2022-07-23T06:25:21;76616.47;;;-144.77;86.02
6449;BME280;3257;52.298;13.690;2022-07-23T06:27:47;76624.41;;;-144.77;86.82
6449;BME280;3257;52.298;13.690;2022-07-23T06:30:14;76628.38;;;-144.77;87.13
6449;BME280;3257;52.298;13.690;2022-07-23T06:32:45;76650.25;;;-144.77;87.47
6449;BME280;3257;52.298;13.690;2022-07-23T06:35:11;76638.31;;;-144.77;87.21
6449;BME280;3257;52.298;13.690;2022-07-23T06:37:38;76616.47;;;-144.77;86.27
6449;BME280;3257;52.298;13.690;2022-07-23T06:40:05;76614.47;;;-144.77;86.27
6449;BME280;3257;52.298;13.690;2022-07-23T06:42:32;76624.41;;;-144.77;86.89
6449;BME280;3257;52.298;13.690;2022-07-23T06:44:58;76636.34;;;-144.77;86.67
6449;BME280;3257;52.298;13.690;2022-07-23T06:47:25;76646.28;;;-144.77;86.72
6449;BME280;3257;52.298;13.690;2022-07-23T06:49:52;76634.34;;;-144.77;87.12
6449;BME280;3257;52.298;13.690;2022-07-23T06:52:18;76654.22;;;-144.77;87.39
6449;BME280;3257;52.298;13.690;2022-07-23T06:54:45;76690.00;;;-144.77;87.78
6449;BME280;3257;52.298;13.690;2022-07-23T06:57:11;76688.00;;;-144.77;89.01
6449;BME280;3257;52.298;13.690;2022-07-23T06:59:38;76691.97;;;-144.77;89.85
6449;BME280;3257;52.298;13.690;2022-07-23T07:02:08;76721.78;;;-144.77;90.17
6449;BME280;3257;52.298;13.690;2022-07-23T07:04:35;76672.09;;;-144.77;90.27
6449;BME280;3257;52.298;13.690;2022-07-23T07:07:01;76646.28;;;-144.77;89.73
6449;BME280;3257;52.298;13.690;2022-07-23T07:09:28;76654.22;;;-144.77;87.63
6449;BME280;3257;52.298;13.690;2022-07-23T07:11:54;76650.25;;;-144.77;87.45
6449;BME280;3257;52.298;13.690;2022-07-23T07:14:21;76622.44;;;-144.77;86.79
6449;BME280;3257;52.298;13.690;2022-07-23T07:16:47;76618.44;;;-144.77;86.35
6449;BME280;3257;52.298;13.690;2022-07-23T07:19:14;76588.63;;;-144.77;85.99
6449;BME280;3257;52.298;13.690;2022-07-23T07:21:41;76554.84;;;-144.77;85.39
6449;BME280;3257;52.298;13.690;2022-07-23T07:24:07;76507.16;;;-144.77;85.22
6449;BME280;3257;52.298;13.690;2022-07-23T07:26:34;76542.94;;;-144.77;84.99
6449;BME280;3257;52.298;13.690;2022-07-23T07:29:02;76542.94;;;-144.77;85.63
6449;BME280;3257;52.298;13.690;2022-07-23T07:31:30;76564.78;;;-144.77;86.40
6449;BME280;3257;52.298;13.690;2022-07-23T07:33:56;76596.59;;;-144.77;88.42
6449;BME280;3257;52.298;13.690;2022-07-23T07:36:23;76596.59;;;-144.77;87.45
6449;BME280;3257;52.298;13.690;2022-07-23T07:38:50;76586.66;;;-144.77;87.15
6449;BME280;3257;52.298;13.690;2022-07-23T07:41:17;76554.84;;;-144.77;86.47
6449;BME280;3257;52.298;13.690;2022-07-23T07:43:43;76542.94;;;-144.77;86.32
6449;BME280;3257;52.298;13.690;2022-07-23T07:46:10;76558.84;;;-144.77;85.82
6449;BME280;3257;52.298;13.690;2022-07-23T07:48:37;76546.91;;;-144.77;85.53
6449;BME280;3257;52.298;13.690;2022-07-23T07:51:04;76558.84;;;-144.77;85.15
6449;BME280;3257;52.298;13.690;2022-07-23T07:53:31;76578.72;;;-144.77;84.36
6449;BME280;3257;52.298;13.690;2022-07-23T07:55:57;76578.72;;;-144.77;85.26
6449;BME280;3257;52.298;13.690;2022-07-23T07:58:24;76558.84;;;-144.77;85.64
6449;BME280;3257;52.298;13.690;2022-07-23T08:00:51;76562.81;;;-144.77;86.29
6449;BME280;3257;52.298;13.690;2022-07-23T08:03:18;76533.00;;;-144.77;86.31
6449;BME280;3257;52.298;13.690;2022-07-23T08:05:45;76513.13;;;-144.77;86.19
6449;BME280;3257;52.298;13.690;2022-07-23T08:08:11;76495.25;;;-144.77;86.24
6449;BME280;3257;52.298;13.690;2022-07-23T08:10:41;76487.28;;;-144.77;86.59
6449;BME280;3257;52.298;13.690;2022-07-23T08:13:12;76483.31;;;-144.77;87.35
6449;BME280;3257;52.298;13.690;2022-07-23T08:15:40;76463.44;;;-144.77;87.24
6449;BME280;3257;52.298;13.690;2022-07-23T08:18:06;76451.53;;;-144.77;87.10
6449;BME280;3257;52.298;13.690;2022-07-23T08:20:33;76473.38;;;-144.77;88.77
6449;BME280;3257;52.298;13.690;2022-07-23T08:23:04;76473.38;;;-144.77;89.78
6449;BME280;3257;52.298;13.690;2022-07-23T08:25:37;76495.25;;;-144.77;85.98
6449;BME280;3257;52.298;13.690;2022-07-23T08:28:06;76479.34;;;-144.77;84.12
6449;BME280;3257;52.298;13.690;2022-07-23T08:30:34;76439.59;;;-144.77;83.18
6449;BME280;3257;52.298;13.690;2022-07-23T08:33:04;76413.78;;;-144.77;84.21
6449;BME280;3257;52.298;13.690;2022-07-23T08:35:35;76374.03;;;-144.77;84.09
6449;BME280;3257;52.298;13.690;2022-07-23T08:38:04;76407.81;;;-144.77;82.18
6449;BME280;3257;52.298;13.690;2022-07-23T08:40:33;76425.69;;;-144.77;82.08
6449;BME280;3257;52.298;13.690;2022-07-23T08:43:15;76370.06;;;-144.77;82.75
6449;BME280;3257;52.298;13.690;2022-07-23T08:45:44;76316.41;;;-144.77;81.84
6449;BME280;3257;52.298;13.690;2022-07-23T08:48:22;76308.47;;;-144.77;79.91
6449;BME280;3257;52.298;13.690;2022-07-23T08:50:54;76268.72;;;-144.77;79.24
6449;BME280;3257;52.298;13.690;2022-07-23T08:53:25;76264.75;;;-144.77;77.63
6449;BME280;3257;52.298;13.690;2022-07-23T08:55:57;76266.72;;;-144.77;79.06
6449;BME280;3257;52.298;13.690;2022-07-23T08:58:25;76278.66;;;-144.77;80.07
6449;BME280;3257;52.298;13.690;2022-07-23T09:00:54;76306.47;;;-144.77;80.44
6449;BME280;3257;52.298;13.690;2022-07-23T09:05:54;76298.53;;;-144.77;79.97
6449;BME280;3257;52.298;13.690;2022-07-23T09:08:34;76280.66;;;-144.77;79.74
6449;BME280;3257;52.298;13.690;2022-07-23T09:11:02;76308.47;;;-144.77;78.22
6449;BME280;3257;52.298;13.690;2022-07-23T09:16:31;76310.44;;;-144.77;76.88
6449;BME280;3257;52.298;13.690;2022-07-23T09:19:04;76276.66;;;-144.77;79.32
6449;BME280;3257;52.298;13.690;2022-07-23T09:21:36;76268.72;;;-144.77;78.21
6449;BME280;3257;52.298;13.690;2022-07-23T09:24:10;76232.94;;;-144.77;76.35
6449;BME280;3257;52.298;13.690;2022-07-23T09:29:17;76219.03;;;-144.77;74.86
6449;BME280;3257;52.298;13.690;2022-07-23T09:31:49;76189.25;;;-144.77;73.71
6449;BME280;3257;52.298;13.690;2022-07-23T09:34:36;76191.22;;;-144.77;73.73
6449;BME280;3257;52.298;13.690;2022-07-23T09:37:11;76217.06;;;-144.77;73.17
6449;BME280;3257;52.298;13.690;2022-07-23T09:39:40;76221.03;;;-144.77;73.64
6449;BME280;3257;52.298;13.690;2022-07-23T09:42:24;76179.31;;;-144.77;73.42
6449;BME280;3257;52.298;13.690;2022-07-23T09:44:53;76133.59;;;-144.77;72.41
6449;BME280;3257;52.298;13.690;2022-07-23T09:47:21;76105.78;;;-144.77;69.45
6449;BME280;3257;52.298;13.690;2022-07-23T09:52:42;76125.66;;;-144.77;68.55
6449;BME280;3257;52.298;13.690;2022-07-23T09:55:09;76157.44;;;-144.77;69.09
6449;BME280;3257;52.298;13.690;2022-07-23T09:57:36;76135.59;;;-144.77;68.99
6449;BME280;3257;52.298;13.690;2022-07-23T10:00:07;76167.38;;;-144.77;68.33
6449;BME280;3257;52.298;13.690;2022-07-23T10:02:38;76105.78;;;-144.77;70.04
6449;BME280;3257;52.298;13.690;2022-07-23T10:05:06;76093.88;;;-144.77;66.30
6449;BME280;3257;52.298;13.690;2022-07-23T10:07:39;76056.13;;;-144.77;67.74
6449;BME280;3257;52.298;13.690;2022-07-23T10:10:06;76038.22;;;-144.77;65.77
6449;BME280;3257;52.298;13.690;2022-07-23T10:12:33;76052.16;;;-144.77;63.27
6449;BME280;3257;52.298;13.690;2022-07-23T10:15:18;76034.25;;;-144.77;64.87
6449;BME280;3257;52.298;13.690;2022-07-23T10:17:45;76008.44;;;-144.77;65.21
6449;BME280;3257;52.298;13.690;2022-07-23T10:20:11;76024.31;;;-144.77;65.78
6449;BME280;3257;52.298;13.690;2022-07-23T10:22:42;76012.41;;;-144.77;66.60
6449;BME280;3257;52.298;13.690;2022-07-23T10:31:06;76038.22;;;-144.77;63.21
6449;BME280;3257;52.298;13.690;2022-07-23T10:34:14;76050.16;;;-144.77;61.00
6449;BME280;3257;52.298;13.690;2022-07-23T10:36:50;76012.41;;;-144.77;61.51
6449;BME280;3257;52.298;13.690;2022-07-23T10:39:30;76028.31;;;-144.77;61.42
6449;BME280;3257;52.298;13.690;2022-07-23T10:42:11;76034.25;;;-144.77;61.71
6449;BME280;3257;52.298;13.690;2022-07-23T10:44:48;76046.19;;;-144.77;63.57
6449;BME280;3257;52.298;13.690;2022-07-23T10:47:34;76074.00;;;-144.77;61.74
6449;BME280;3257;52.298;13.690;2022-07-23T10:50:28;76101.81;;;-144.77;62.51
6449;BME280;3257;52.298;13.690;2022-07-23T10:58:02;76079.97;;;-144.77;61.74
6449;BME280;3257;52.298;13.690;2022-07-23T11:00:30;76079.97;;;-144.77;60.62
6449;BME280;3257;52.298;13.690;2022-07-23T11:02:59;76062.06;;;-144.77;60.79
6449;BME280;3257;52.298;13.690;2022-07-23T11:05:40;76040.22;;;-144.77;61.54
6449;BME280;3257;52.298;13.690;2022-07-23T11:10:40;76012.41;;;-144.77;58.43
6449;BME280;3257;52.298;13.690;2022-07-23T11:24:12;75986.56;;;-144.77;59.37
6449;BME280;3257;52.298;13.690;2022-07-23T11:26:43;75970.69;;;-144.77;56.46
6449;BME280;3257;52.298;13.690;2022-07-23T11:32:03;76044.19;;;-144.77;58.85
6449;BME280;3257;52.298;13.690;2022-07-23T11:34:44;76042.22;;;-144.77;59.62
6449;BME280;3257;52.298;13.690;2022-07-23T11:37:28;76042.22;;;-144.77;56.71
6449;BME280;3257;52.298;13.690;2022-07-23T11:39:56;76038.22;;;-144.77;56.26
6449;BME280;3257;52.298;13.690;2022-07-23T11:42:23;75992.53;;;-144.77;55.99
6449;BME280;3257;52.298;13.690;2022-07-23T11:44:56;75956.78;;;-144.77;55.01
6449;BME280;3257;52.298;13.690;2022-07-23T11:47:24;75899.16;;;-144.77;58.47
6449;BME280;3257;52.298;13.690;2022-07-23T11:49:54;75851.47;;;-144.77;53.95
6449;BME280;3257;52.298;13.690;2022-07-23T11:52:21;75805.78;;;-144.77;54.56
6449;BME280;3257;52.298;13.690;2022-07-23T11:55:09;75760.09;;;-144.77;52.14
6449;BME280;3257;52.298;13.690;2022-07-23T11:57:38;75744.19;;;-144.77;51.37
6449;BME280;3257;52.298;13.690;2022-07-23T12:02:39;75793.84;;;-144.77;48.44
6449;BME280;3257;52.298;13.690;2022-07-23T12:05:07;75770.03;;;-144.77;49.75
6449;BME280;3257;52.298;13.690;2022-07-23T12:07:37;75732.28;;;-144.77;49.20
6449;BME280;3257;52.298;13.690;2022-07-23T12:10:15;75764.06;;;-144.77;50.32
6449;BME280;3257;52.298;13.690;2022-07-23T12:12:53;75787.91;;;-144.77;49.79
6449;BME280;3257;52.298;13.690;2022-07-23T12:15:29;75777.97;;;-144.77;50.38
6449;BME280;3257;52.298;13.690;2022-07-23T12:18:00;75775.97;;;-144.77;49.24
6449;BME280;3257;52.298;13.690;2022-07-23T12:20:30;75746.19;;;-144.77;48.51
6449;BME280;3257;52.298;13.690;2022-07-23T12:22:59;75768.03;;;-144.77;47.94
6449;BME280;3257;52.298;13.690;2022-07-23T12:25:29;75754.13;;;-144.77;48.84
6449;BME280;3257;52.298;13.690;2022-07-23T12:30:37;75764.06;;;-144.77;47.79
6449;BME280;3257;52.298;13.690;2022-07-23T12:33:05;75768.03;;;-144.77;48.46
6449;BME280;3257;52.298;13.690;2022-07-23T12:35:43;75807.75;;;-144.77;47.80
6449;BME280;3257;52.298;13.690;2022-07-23T12:38:13;75815.72;;;-144.77;48.75
6449;BME280;3257;52.298;13.690;2022-07-23T12:43:10;75845.50;;;-144.77;49.81
6449;BME280;3257;52.298;13.690;2022-07-23T12:48:27;75805.78;;;-144.77;48.77
6449;BME280;3257;52.298;13.690;2022-07-23T12:51:05;75803.78;;;-144.77;49.74
6449;BME280;3257;52.298;13.690;2022-07-23T12:53:43;75799.81;;;-144.77;50.10
6449;BME280;3257;52.298;13.690;2022-07-23T12:56:10;75817.69;;;-144.77;49.88
6449;BME280;3257;52.298;13.690;2022-07-23T13:06:39;75847.50;;;-144.77;49.71
6449;BME280;3257;52.298;13.690;2022-07-23T13:09:08;75869.34;;;-144.77;49.06
6449;BME280;3257;52.298;13.690;2022-07-23T13:11:36;75861.41;;;-144.77;50.89
6449;BME280;3257;52.298;13.690;2022-07-23T13:14:04;75845.50;;;-144.77;49.38
6449;BME280;3257;52.298;13.690;2022-07-23T13:16:34;75813.72;;;-144.77;49.06
6449;BME280;3257;52.298;13.690;2022-07-23T13:19:01;75775.97;;;-144.77;49.20
6449;BME280;3257;52.298;13.690;2022-07-23T13:21:29;75772.00;;;-144.77;49.17
6449;BME280;3257;52.298;13.690;2022-07-23T13:23:56;75738.22;;;-144.77;48.07
6449;BME280;3257;52.298;13.690;2022-07-23T13:26:23;75732.28;;;-144.77;49.76
6449;BME280;3257;52.298;13.690;2022-07-23T13:28:50;75698.50;;;-144.77;46.64
6449;BME280;3257;52.298;13.690;2022-07-23T13:31:20;75654.78;;;-144.77;46.12
6449;BME280;3257;52.298;13.690;2022-07-23T13:33:47;75603.13;;;-144.77;46.66
6449;BME280;3257;52.298;13.690;2022-07-23T13:36:15;75563.41;;;-144.77;45.11
6449;BME280;3257;52.298;13.690;2022-07-23T13:38:41;75539.56;;;-144.77;45.37
6449;BME280;3257;52.298;13.690;2022-07-23T13:41:08;75527.66;;;-144.77;44.31
6449;BME280;3257;52.298;13.690;2022-07-23T13:43:38;75539.56;;;-144.77;43.55
6449;BME280;3257;52.298;13.690;2022-07-23T13:46:04;75545.53;;;-144.77;45.11
6449;BME280;3257;52.298;13.690;2022-07-23T13:48:31;75527.66;;;-144.77;43.26
6449;BME280;3257;52.298;13.690;2022-07-23T13:50:58;75543.53;;;-144.77;42.94
6449;BME280;3257;52.298;13.690;2022-07-23T13:53:26;75573.34;;;-144.77;43.80
6449;BME280;3257;52.298;13.690;2022-07-23T13:55:53;75611.09;;;-144.77;44.67
6449;BME280;3257;52.298;13.690;2022-07-23T13:58:21;75617.03;;;-144.77;45.03
6449;BME280;3257;52.298;13.690;2022-07-23T14:00:51;75609.09;;;-144.77;44.86
6449;BME280;3257;52.298;13.690;2022-07-23T14:03:21;75601.16;;;-144.77;44.96
6449;BME280;3257;52.298;13.690;2022-07-23T14:05:51;75656.78;;;-144.77;44.24